LFKB Airport Information

Runway Information
Runway 16 Length 8266 ft width 148 ft
Elevation 13 ft Threshold 0 ft Heading 163
Runway 34 Length 8266 ft Width 148 ft
Elevation 26 ft Threshold 0 ft Heading 343
Airport Frequencies
Type AFIS Name BASTIA INF Frequency 124.725 MHZ
Type APP Name BASTIA RAD Frequency 123.825 MHZ
Type ARR Name BASTIA APP Frequency 37.85 MHZ
Type ATIS Name BASTIA ATI Frequency 125.925 MHZ
Type GND Name GND Frequency 121.825 MHZ
Type TWR Name BASTIA TWR Frequency 118 MHZ
Airport Navaids
Type VOR-DME Name Bastia Frequency 114150 KHZ
Airport Weather Information & NOTAM
ADDS - METARS form results

(1147 UTC 22 October 2019)
Data provider http://aviationweather.gov/metar/data/
 
METAR text: LFKB 221130Z AUTO 14014KT 9999 FEW008 BKN014 BKN020 23/20 Q1019 TEMPO 4000 BR
Conditions at: LFKB (BASTIA/PORETTA , FR) observed 1130 UTC 22 October 2019
Temperature: 23.0°C (73°F)
Dewpoint: 20.0°C (68°F) [RH = 83%]
Pressure (altimeter): 30.09 inches Hg (1019.0 mb)
Winds: from the SE (140 degrees) at 16 MPH (14 knots; 7.2 m/s)
Visibility: 6 or more miles (10+ km)
Ceiling: 1400 feet AGL
Clouds: few clouds at 800 feet AGL
broken clouds at 1400 feet AGL
broken clouds at 2000 feet AGL
Weather: no significant weather observed at this time

METAR text: LFKB 221100Z AUTO 14012KT 110V170 9999 SCT007 BKN013 OVC020 22/20 Q1020 TEMPO 4000 BR
Conditions at: LFKB (BASTIA/PORETTA , FR) observed 1100 UTC 22 October 2019
Temperature: 22.0°C (72°F)
Dewpoint: 20.0°C (68°F) [RH = 88%]
Pressure (altimeter): 30.12 inches Hg (1020.0 mb)
Winds: from the SE (140 degrees) at 14 MPH (12 knots; 6.2 m/s)
Visibility: 6 or more miles (10+ km)
Ceiling: 1300 feet AGL
Clouds: scattered clouds at 700 feet AGL
broken clouds at 1300 feet AGL
overcast cloud deck at 2000 feet AGL
Weather: no significant weather observed at this time

Forecast for: LFKB (BASTIA/PORETTA , FR)
Text: TAF LFKB 220800Z 2209/2309 14014KT 9999 SCT007 SCT012 BKN020 TX23/2212Z TN18/2303Z
Forecast period: 0900 UTC 22 October 2019 to 0900 UTC 23 October 2019
Forecast type: FROM: standard forecast or significant change
Winds: from the SE (140 degrees) at 16 MPH (14 knots; 7.2 m/s)
Visibility: 6 or more miles 10+ km)
Ceiling: 2000 feet AGL
Clouds: scattered clouds at 700 feet AGL
scattered clouds at 1200 feet AGL
broken clouds at 2000 feet AGL
Weather: no significant weather forecast for this period
Text: TEMPO 2209/2309 4000 BR SCT006 BKN011
Forecast period: 0900 UTC 22 October 2019 to 0900 UTC 23 October 2019
Forecast type: TEMPORARY: The following changes expected for less than half the time period
Visibility: 2.49 miles (4.01 km)
Ceiling: 1100 feet AGL
Clouds: scattered clouds at 600 feet AGL
broken clouds at 1100 feet AGL
Weather: BR  (mist)